Miami Shores, Florida
Current Conditions -  °F | °C
As of 2:53 AM on Sunday 26 Oct 2014 (Local Time) from KOPF Reporting Station
Scattered Clouds Scattered Clouds  
Wind Chill: 71°   Ceiling: Unl
Heat Index: 71°   Visibility: 10mi
Dew Point: 64°   Wind: 9mph
Humidity: 78%   Direction: 340°NNW
Pressure: 29.92"   Gusts: NA
Location:  25.87°N, 80.19°W
Report Text: KOPF 260653Z AUTO 34008KT 10SM FEW043 SCT060 22/18 A2992 RMK AO2 SLP132 T02170178 $
Loading
Personal Weather Stations






























Interactive Weather Map
Tropical Storm Tracking
New forecast layout! Learn more

10-Day Weather Forecast

Advertisements
Track Severe Weather on mobile